sensor_id;sensor_type;location;lat;lon;timestamp;pressure;altitude;pressure_sealevel;temperature;humidity
20955;BME280;10636;19.390;-99.256;2023-05-07T00:01:02;77796.50;;;27.91;28.48
20955;BME280;10636;19.390;-99.256;2023-05-07T00:03:33;77807.28;;;27.91;29.15
20955;BME280;10636;19.390;-99.256;2023-05-07T00:06:03;77804.50;;;27.88;28.70
20955;BME280;10636;19.390;-99.256;2023-05-07T00:08:31;77806.53;;;27.88;29.26
20955;BME280;10636;19.390;-99.256;2023-05-07T00:10:59;77814.59;;;27.88;29.36
20955;BME280;10636;19.390;-99.256;2023-05-07T00:13:28;77801.13;;;27.88;29.00
20955;BME280;10636;19.390;-99.256;2023-05-07T00:16:01;77811.19;;;27.85;29.54
20955;BME280;10636;19.390;-99.256;2023-05-07T00:18:30;77812.56;;;27.86;29.40
20955;BME280;10636;19.390;-99.256;2023-05-07T00:21:00;77814.56;;;27.86;29.36
20955;BME280;10636;19.390;-99.256;2023-05-07T00:23:29;77812.56;;;27.86;29.29
20955;BME280;10636;19.390;-99.256;2023-05-07T00:25:57;77816.56;;;27.85;29.29
20955;BME280;10636;19.390;-99.256;2023-05-07T00:28:28;77824.59;;;27.83;29.18
20955;BME280;10636;19.390;-99.256;2023-05-07T00:30:57;77830.63;;;27.82;29.70
20955;BME280;10636;19.390;-99.256;2023-05-07T00:33:27;77831.94;;;27.81;29.28
20955;BME280;10636;19.390;-99.256;2023-05-07T00:35:56;77840.66;;;27.79;29.52
20955;BME280;10636;19.390;-99.256;2023-05-07T00:38:26;77850.06;;;27.78;29.28
20955;BME280;10636;19.390;-99.256;2023-05-07T00:40:54;77848.69;;;27.77;29.51
20955;BME280;10636;19.390;-99.256;2023-05-07T00:43:22;77850.69;;;27.77;29.70
20955;BME280;10636;19.390;-99.256;2023-05-07T00:45:51;77858.72;;;27.75;29.51
20955;BME280;10636;19.390;-99.256;2023-05-07T00:48:20;77858.09;;;27.76;29.22
20955;BME280;10636;19.390;-99.256;2023-05-07T00:50:51;77864.13;;;27.75;29.43
20955;BME280;10636;19.390;-99.256;2023-05-07T00:53:19;77884.34;;;27.76;29.13
20955;BME280;10636;19.390;-99.256;2023-05-07T00:55:50;77887.72;;;27.76;29.53
20955;BME280;10636;19.390;-99.256;2023-05-07T00:58:20;77890.47;;;27.78;29.73
20955;BME280;10636;19.390;-99.256;2023-05-07T01:00:49;77914.03;;;27.78;29.05
20955;BME280;10636;19.390;-99.256;2023-05-07T01:03:18;77934.22;;;27.77;29.18
20955;BME280;10636;19.390;-99.256;2023-05-07T01:05:47;77933.53;;;27.76;29.04
20955;BME280;10636;19.390;-99.256;2023-05-07T01:08:17;77945.56;;;27.73;28.62
20955;BME280;10636;19.390;-99.256;2023-05-07T01:10:46;77949.53;;;27.70;29.20
20955;BME280;10636;19.390;-99.256;2023-05-07T01:13:17;77971.09;;;27.70;28.86
20955;BME280;10636;19.390;-99.256;2023-05-07T01:15:46;77970.25;;;27.66;28.92
20955;BME280;10636;19.390;-99.256;2023-05-07T01:18:15;78007.94;;;27.63;29.57
20955;BME280;10636;19.390;-99.256;2023-05-07T01:20:43;78025.28;;;27.58;30.39
20955;BME280;10636;19.390;-99.256;2023-05-07T01:23:16;78053.41;;;27.53;31.98
20955;BME280;10636;19.390;-99.256;2023-05-07T01:25:51;78080.28;;;27.51;32.25
20955;BME280;10636;19.390;-99.256;2023-05-07T01:28:20;78082.38;;;27.53;32.44
20955;BME280;10636;19.390;-99.256;2023-05-07T01:30:53;78082.41;;;27.55;33.18
20955;BME280;10636;19.390;-99.256;2023-05-07T01:33:22;78103.97;;;27.55;33.43
20955;BME280;10636;19.390;-99.256;2023-05-07T01:35:53;78095.75;;;27.51;33.84
20955;BME280;10636;19.390;-99.256;2023-05-07T01:38:23;78113.28;;;27.52;33.97
20955;BME280;10636;19.390;-99.256;2023-05-07T01:40:53;78135.47;;;27.50;34.41
20955;BME280;10636;19.390;-99.256;2023-05-07T01:43:21;78141.41;;;27.47;35.20
20955;BME280;10636;19.390;-99.256;2023-05-07T01:45:50;78125.19;;;27.45;35.73
20955;BME280;10636;19.390;-99.256;2023-05-07T01:48:18;78126.38;;;27.40;35.73
20955;BME280;10636;19.390;-99.256;2023-05-07T01:50:47;78127.59;;;27.36;36.04
20955;BME280;10636;19.390;-99.256;2023-05-07T01:53:16;78120.84;;;27.35;35.95
20955;BME280;10636;19.390;-99.256;2023-05-07T01:55:46;78130.09;;;27.30;36.39
20955;BME280;10636;19.390;-99.256;2023-05-07T01:58:14;78126.66;;;27.28;36.72
20955;BME280;10636;19.390;-99.256;2023-05-07T02:00:43;78131.28;;;27.25;36.50
20955;BME280;10636;19.390;-99.256;2023-05-07T02:03:11;78131.16;;;27.21;36.87
20955;BME280;10636;19.390;-99.256;2023-05-07T02:05:39;78145.81;;;27.16;36.80
20955;BME280;10636;19.390;-99.256;2023-05-07T02:08:08;78144.28;;;27.11;37.03
20955;BME280;10636;19.390;-99.256;2023-05-07T02:10:36;78154.97;;;27.09;37.36
20955;BME280;10636;19.390;-99.256;2023-05-07T02:13:06;78164.44;;;27.10;37.63
20955;BME280;10636;19.390;-99.256;2023-05-07T02:15:35;78160.31;;;27.07;37.65
20955;BME280;10636;19.390;-99.256;2023-05-07T02:18:06;78156.22;;;27.06;38.08
20955;BME280;10636;19.390;-99.256;2023-05-07T02:20:35;78156.06;;;27.02;37.89
20955;BME280;10636;19.390;-99.256;2023-05-07T02:23:03;78162.00;;;26.98;38.15
20955;BME280;10636;19.390;-99.256;2023-05-07T02:25:32;78167.38;;;26.98;37.86
20955;BME280;10636;19.390;-99.256;2023-05-07T02:28:00;78170.69;;;26.97;37.63
20955;BME280;10636;19.390;-99.256;2023-05-07T02:30:30;78183.53;;;26.98;37.63
20955;BME280;10636;19.390;-99.256;2023-05-07T02:32:59;78182.16;;;26.97;37.49
20955;BME280;10636;19.390;-99.256;2023-05-07T02:35:27;78196.22;;;26.96;37.63
20955;BME280;10636;19.390;-99.256;2023-05-07T02:37:56;78196.81;;;26.94;37.92
20955;BME280;10636;19.390;-99.256;2023-05-07T02:40:24;78192.63;;;26.89;37.57
20955;BME280;10636;19.390;-99.256;2023-05-07T02:42:53;78189.19;;;26.87;37.95
20955;BME280;10636;19.390;-99.256;2023-05-07T02:45:21;78181.56;;;26.81;37.90
20955;BME280;10636;19.390;-99.256;2023-05-07T02:47:51;78179.38;;;26.75;37.73
20955;BME280;10636;19.390;-99.256;2023-05-07T02:50:19;78167.06;;;26.70;37.77
20955;BME280;10636;19.390;-99.256;2023-05-07T02:52:48;78157.53;;;26.67;37.58
20955;BME280;10636;19.390;-99.256;2023-05-07T02:55:16;78165.56;;;26.65;37.65
20955;BME280;10636;19.390;-99.256;2023-05-07T02:57:45;78150.63;;;26.62;37.21
20955;BME280;10636;19.390;-99.256;2023-05-07T03:00:15;78157.97;;;26.59;37.28
20955;BME280;10636;19.390;-99.256;2023-05-07T03:02:45;78161.28;;;26.58;37.47
20955;BME280;10636;19.390;-99.256;2023-05-07T03:05:15;78194.78;;;26.55;37.70
20955;BME280;10636;19.390;-99.256;2023-05-07T03:07:43;78200.00;;;26.51;37.38
20955;BME280;10636;19.390;-99.256;2023-05-07T03:10:12;78205.31;;;26.49;37.13
20955;BME280;10636;19.390;-99.256;2023-05-07T03:12:41;78195.19;;;26.47;37.09
20955;BME280;10636;19.390;-99.256;2023-05-07T03:15:10;78195.72;;;26.44;36.82
20955;BME280;10636;19.390;-99.256;2023-05-07T03:17:39;78187.56;;;26.42;36.79
20955;BME280;10636;19.390;-99.256;2023-05-07T03:20:08;78188.78;;;26.39;36.54
20955;BME280;10636;19.390;-99.256;2023-05-07T03:22:38;78188.09;;;26.38;36.86
20955;BME280;10636;19.390;-99.256;2023-05-07T03:25:08;78188.09;;;26.38;36.96
20955;BME280;10636;19.390;-99.256;2023-05-07T03:27:36;78195.53;;;26.40;36.96
20955;BME280;10636;19.390;-99.256;2023-05-07T03:30:06;78195.72;;;26.44;36.99
20955;BME280;10636;19.390;-99.256;2023-05-07T03:32:35;78203.94;;;26.48;37.18
20955;BME280;10636;19.390;-99.256;2023-05-07T03:35:04;78202.00;;;26.50;37.22
20955;BME280;10636;19.390;-99.256;2023-05-07T03:37:33;78201.38;;;26.52;37.38
20955;BME280;10636;19.390;-99.256;2023-05-07T03:40:03;78212.13;;;26.52;37.24
20955;BME280;10636;19.390;-99.256;2023-05-07T03:42:32;78202.09;;;26.52;37.18
20955;BME280;10636;19.390;-99.256;2023-05-07T03:45:00;78210.16;;;26.52;36.92
20955;BME280;10636;19.390;-99.256;2023-05-07T03:47:28;78223.59;;;26.52;37.18
20955;BME280;10636;19.390;-99.256;2023-05-07T03:49:57;78230.38;;;26.53;37.00
20955;BME280;10636;19.390;-99.256;2023-05-07T03:52:25;78241.19;;;26.55;36.85
20955;BME280;10636;19.390;-99.256;2023-05-07T03:54:54;78237.13;;;26.54;36.62
20955;BME280;10636;19.390;-99.256;2023-05-07T03:57:24;78247.88;;;26.54;36.81
20955;BME280;10636;19.390;-99.256;2023-05-07T03:59:52;78241.03;;;26.51;36.44
20955;BME280;10636;19.390;-99.256;2023-05-07T04:02:21;78251.88;;;26.53;36.70
20955;BME280;10636;19.390;-99.256;2023-05-07T04:04:49;78245.81;;;26.53;36.49
20955;BME280;10636;19.390;-99.256;2023-05-07T04:07:18;78244.50;;;26.54;36.49
20955;BME280;10636;19.390;-99.256;2023-05-07T04:09:47;78235.75;;;26.53;36.65
20955;BME280;10636;19.390;-99.256;2023-05-07T04:12:18;78231.75;;;26.54;36.37
20955;BME280;10636;19.390;-99.256;2023-05-07T04:14:48;78237.13;;;26.54;36.55
20955;BME280;10636;19.390;-99.256;2023-05-07T04:17:16;78241.81;;;26.54;36.17
20955;BME280;10636;19.390;-99.256;2023-05-07T04:19:45;78251.31;;;26.57;36.27
20955;BME280;10636;19.390;-99.256;2023-05-07T04:22:13;78264.78;;;26.57;35.96
20955;BME280;10636;19.390;-99.256;2023-05-07T04:24:42;78266.09;;;26.56;36.10
20955;BME280;10636;19.390;-99.256;2023-05-07T04:27:11;78270.09;;;26.55;36.17
20955;BME280;10636;19.390;-99.256;2023-05-07T04:29:39;78266.66;;;26.52;36.18
20955;BME280;10636;19.390;-99.256;2023-05-07T04:32:10;78273.41;;;26.53;36.06
20955;BME280;10636;19.390;-99.256;2023-05-07T04:34:39;78280.84;;;26.55;36.06
20955;BME280;10636;19.390;-99.256;2023-05-07T04:37:07;78270.78;;;26.55;36.08
20955;BME280;10636;19.390;-99.256;2023-05-07T04:39:35;78273.47;;;26.55;35.89
20955;BME280;10636;19.390;-99.256;2023-05-07T04:42:04;78273.47;;;26.55;35.74
20955;BME280;10636;19.390;-99.256;2023-05-07T04:44:33;78264.72;;;26.55;35.73
20955;BME280;10636;19.390;-99.256;2023-05-07T04:47:03;78268.03;;;26.53;35.63
20955;BME280;10636;19.390;-99.256;2023-05-07T04:49:33;78279.47;;;26.54;35.78
20955;BME280;10636;19.390;-99.256;2023-05-07T04:52:01;78274.09;;;26.54;35.74
20955;BME280;10636;19.390;-99.256;2023-05-07T04:54:30;78276.09;;;26.53;35.71
20955;BME280;10636;19.390;-99.256;2023-05-07T04:56:58;78279.47;;;26.54;35.62
20955;BME280;10636;19.390;-99.256;2023-05-07T04:59:27;78277.41;;;26.52;35.54
20955;BME280;10636;19.390;-99.256;2023-05-07T05:01:55;78278.09;;;26.53;35.63
20955;BME280;10636;19.390;-99.256;2023-05-07T05:04:24;78278.09;;;26.53;35.36
20955;BME280;10636;19.390;-99.256;2023-05-07T05:06:54;78282.78;;;26.52;35.25
20955;BME280;10636;19.390;-99.256;2023-05-07T05:09:22;78288.16;;;26.52;35.56
20955;BME280;10636;19.390;-99.256;2023-05-07T05:11:51;78288.75;;;26.51;35.51
20955;BME280;10636;19.390;-99.256;2023-05-07T05:14:19;78292.75;;;26.50;35.29
20955;BME280;10636;19.390;-99.256;2023-05-07T05:16:48;78283.31;;;26.49;35.10
20955;BME280;10636;19.390;-99.256;2023-05-07T05:19:16;78288.69;;;26.49;35.31
20955;BME280;10636;19.390;-99.256;2023-05-07T05:21:45;78290.69;;;26.48;35.47
20955;BME280;10636;19.390;-99.256;2023-05-07T05:24:15;78295.38;;;26.48;35.11
20955;BME280;10636;19.390;-99.256;2023-05-07T05:26:44;78287.31;;;26.48;35.42
20955;BME280;10636;19.390;-99.256;2023-05-07T05:29:12;78291.28;;;26.47;34.97
20955;BME280;10636;19.390;-99.256;2023-05-07T05:31:41;78281.94;;;26.48;34.48
20955;BME280;10636;19.390;-99.256;2023-05-07T05:34:09;78280.53;;;26.47;34.88
20955;BME280;10636;19.390;-99.256;2023-05-07T05:36:38;78284.53;;;26.46;35.00
20955;BME280;10636;19.390;-99.256;2023-05-07T05:39:06;78279.84;;;26.46;35.08
20955;BME280;10636;19.390;-99.256;2023-05-07T05:41:36;78280.41;;;26.43;35.09
20955;BME280;10636;19.390;-99.256;2023-05-07T05:44:05;78271.03;;;26.44;34.86
20955;BME280;10636;19.390;-99.256;2023-05-07T05:46:33;78268.34;;;26.44;35.00
20955;BME280;10636;19.390;-99.256;2023-05-07T05:49:02;78277.09;;;26.44;34.95
20955;BME280;10636;19.390;-99.256;2023-05-07T05:51:31;78271.03;;;26.44;34.84
20955;BME280;10636;19.390;-99.256;2023-05-07T05:53:59;78268.34;;;26.44;34.54
20955;BME280;10636;19.390;-99.256;2023-05-07T05:56:28;78268.94;;;26.42;34.85
20955;BME280;10636;19.390;-99.256;2023-05-07T05:58:58;78268.94;;;26.42;34.87
20955;BME280;10636;19.390;-99.256;2023-05-07T06:01:26;78257.47;;;26.42;34.56
20955;BME280;10636;19.390;-99.256;2023-05-07T06:03:55;78259.56;;;26.43;34.68
20955;BME280;10636;19.390;-99.256;2023-05-07T06:06:24;78258.88;;;26.43;34.76
20955;BME280;10636;19.390;-99.256;2023-05-07T06:08:52;78262.16;;;26.41;34.64
20955;BME280;10636;19.390;-99.256;2023-05-07T06:11:21;78258.75;;;26.41;34.69
20955;BME280;10636;19.390;-99.256;2023-05-07T06:13:49;78256.75;;;26.41;34.68
20955;BME280;10636;19.390;-99.256;2023-05-07T06:16:19;78254.69;;;26.40;34.57
20955;BME280;10636;19.390;-99.256;2023-05-07T06:18:47;78250.69;;;26.41;34.42
20955;BME280;10636;19.390;-99.256;2023-05-07T06:21:16;78249.94;;;26.38;34.34
20955;BME280;10636;19.390;-99.256;2023-05-07T06:23:44;78247.94;;;26.39;34.47
20955;BME280;10636;19.390;-99.256;2023-05-07T06:26:13;78241.25;;;26.40;34.48
20955;BME280;10636;19.390;-99.256;2023-05-07T06:28:41;78237.19;;;26.39;34.52
20955;BME280;10636;19.390;-99.256;2023-05-07T06:31:13;78239.81;;;26.37;34.38
20955;BME280;10636;19.390;-99.256;2023-05-07T06:33:44;78237.13;;;26.37;34.30
20955;BME280;10636;19.390;-99.256;2023-05-07T06:36:13;78228.22;;;26.32;34.26
20955;BME280;10636;19.390;-99.256;2023-05-07T06:38:41;78226.28;;;26.34;34.50
20955;BME280;10636;19.390;-99.256;2023-05-07T06:41:09;78230.97;;;26.34;34.46
20955;BME280;10636;19.390;-99.256;2023-05-07T06:43:38;78234.28;;;26.32;34.28
20955;BME280;10636;19.390;-99.256;2023-05-07T06:46:06;78222.16;;;26.31;34.66
20955;BME280;10636;19.390;-99.256;2023-05-07T06:48:35;78225.44;;;26.30;34.52
20955;BME280;10636;19.390;-99.256;2023-05-07T06:51:05;78222.75;;;26.30;34.42
20955;BME280;10636;19.390;-99.256;2023-05-07T06:53:34;78224.06;;;26.29;34.27
20955;BME280;10636;19.390;-99.256;2023-05-07T06:56:03;78213.97;;;26.29;34.27
20955;BME280;10636;19.390;-99.256;2023-05-07T06:58:32;78219.34;;;26.29;34.14
20955;BME280;10636;19.390;-99.256;2023-05-07T07:01:00;78211.91;;;26.28;34.35
20955;BME280;10636;19.390;-99.256;2023-05-07T07:03:29;78211.22;;;26.27;34.18
20955;BME280;10636;19.390;-99.256;2023-05-07T07:05:57;78221.97;;;26.27;34.47
20955;BME280;10636;19.390;-99.256;2023-05-07T07:08:27;78211.22;;;26.27;34.56
20955;BME280;10636;19.390;-99.256;2023-05-07T07:10:55;78206.44;;;26.26;34.29
20955;BME280;10636;19.390;-99.256;2023-05-07T07:13:24;78205.84;;;26.27;34.15
20955;BME280;10636;19.390;-99.256;2023-05-07T07:15:52;78206.38;;;26.24;34.11
20955;BME280;10636;19.390;-99.256;2023-05-07T07:18:21;78203.06;;;26.25;34.39
20955;BME280;10636;19.390;-99.256;2023-05-07T07:20:49;78201.69;;;26.24;34.26
20955;BME280;10636;19.390;-99.256;2023-05-07T07:23:18;78200.31;;;26.23;33.92
20955;BME280;10636;19.390;-99.256;2023-05-07T07:25:48;78193.56;;;26.22;34.40
20955;BME280;10636;19.390;-99.256;2023-05-07T07:28:17;78194.25;;;26.23;34.06
20955;BME280;10636;19.390;-99.256;2023-05-07T07:30:45;78188.19;;;26.22;34.34
20955;BME280;10636;19.390;-99.256;2023-05-07T07:33:14;78188.19;;;26.22;34.09
20955;BME280;10636;19.390;-99.256;2023-05-07T07:35:42;78171.97;;;26.20;34.25
20955;BME280;10636;19.390;-99.256;2023-05-07T07:38:11;78169.28;;;26.20;34.26
20955;BME280;10636;19.390;-99.256;2023-05-07T07:40:39;78178.06;;;26.21;34.35
20955;BME280;10636;19.390;-99.256;2023-05-07T07:43:09;78178.66;;;26.19;34.20
20955;BME280;10636;19.390;-99.256;2023-05-07T07:45:38;78177.28;;;26.18;34.08
20955;BME280;10636;19.390;-99.256;2023-05-07T07:48:07;78173.22;;;26.17;34.41
20955;BME280;10636;19.390;-99.256;2023-05-07T07:50:35;78175.91;;;26.17;33.85
20955;BME280;10636;19.390;-99.256;2023-05-07T07:53:03;78171.22;;;26.18;34.41
20955;BME280;10636;19.390;-99.256;2023-05-07T07:55:32;78167.06;;;26.15;34.33
20955;BME280;10636;19.390;-99.256;2023-05-07T07:58:00;78169.06;;;26.14;34.26
20955;BME280;10636;19.390;-99.256;2023-05-07T08:00:30;78165.00;;;26.13;34.11
20955;BME280;10636;19.390;-99.256;2023-05-07T08:02:59;78160.88;;;26.10;34.38
20955;BME280;10636;19.390;-99.256;2023-05-07T08:05:29;78154.88;;;26.12;34.22
20955;BME280;10636;19.390;-99.256;2023-05-07T08:07:57;78156.88;;;26.11;34.37
20955;BME280;10636;19.390;-99.256;2023-05-07T08:10:26;78156.19;;;26.11;34.53
20955;BME280;10636;19.390;-99.256;2023-05-07T08:12:55;78144.72;;;26.10;34.20
20955;BME280;10636;19.390;-99.256;2023-05-07T08:15:24;78140.66;;;26.09;34.16
20955;BME280;10636;19.390;-99.256;2023-05-07T08:17:54;78140.03;;;26.11;34.27
20955;BME280;10636;19.390;-99.256;2023-05-07T08:20:23;78144.03;;;26.10;34.04
20955;BME280;10636;19.390;-99.256;2023-05-07T08:22:52;78139.28;;;26.08;33.96
20955;BME280;10636;19.390;-99.256;2023-05-07T08:25:20;78129.16;;;26.06;34.40
20955;BME280;10636;19.390;-99.256;2023-05-07T08:27:49;78133.16;;;26.05;34.05
20955;BME280;10636;19.390;-99.256;2023-05-07T08:30:17;78127.06;;;26.05;34.15
20955;BME280;10636;19.390;-99.256;2023-05-07T08:32:45;78119.69;;;26.05;34.20
20955;BME280;10636;19.390;-99.256;2023-05-07T08:35:15;78125.69;;;26.04;34.33
20955;BME280;10636;19.390;-99.256;2023-05-07T08:37:44;78122.94;;;26.02;34.24
20955;BME280;10636;19.390;-99.256;2023-05-07T08:40:12;78117.56;;;26.02;34.15
20955;BME280;10636;19.390;-99.256;2023-05-07T08:42:41;78129.59;;;26.01;34.25
20955;BME280;10636;19.390;-99.256;2023-05-07T08:45:10;78129.53;;;25.99;34.32
20955;BME280;10636;19.390;-99.256;2023-05-07T08:47:44;78130.91;;;26.00;34.14
20955;BME280;10636;19.390;-99.256;2023-05-07T08:50:14;78126.16;;;25.98;34.09
20955;BME280;10636;19.390;-99.256;2023-05-07T08:52:43;78118.78;;;25.99;34.29
20955;BME280;10636;19.390;-99.256;2023-05-07T08:55:13;78127.44;;;25.97;33.94
20955;BME280;10636;19.390;-99.256;2023-05-07T08:57:41;78121.41;;;25.97;34.15
20955;BME280;10636;19.390;-99.256;2023-05-07T09:00:11;78115.94;;;25.95;34.27
20955;BME280;10636;19.390;-99.256;2023-05-07T09:02:39;78120.03;;;25.96;33.82
20955;BME280;10636;19.390;-99.256;2023-05-07T09:05:08;78114.66;;;25.96;34.17
20955;BME280;10636;19.390;-99.256;2023-05-07T09:07:39;78117.94;;;25.94;34.27
20955;BME280;10636;19.390;-99.256;2023-05-07T09:10:08;78118.63;;;25.95;33.98
20955;BME280;10636;19.390;-99.256;2023-05-07T09:12:36;78122.63;;;25.94;33.88
20955;BME280;10636;19.390;-99.256;2023-05-07T09:15:06;78113.88;;;25.93;34.20
20955;BME280;10636;19.390;-99.256;2023-05-07T09:17:35;78118.56;;;25.93;34.33
20955;BME280;10636;19.390;-99.256;2023-05-07T09:20:04;78114.47;;;25.92;34.05
20955;BME280;10636;19.390;-99.256;2023-05-07T09:22:33;78111.03;;;25.89;34.17
20955;BME280;10636;19.390;-99.256;2023-05-07T09:25:04;78107.06;;;25.90;34.06
20955;BME280;10636;19.390;-99.256;2023-05-07T09:27:33;78115.78;;;25.91;33.99
20955;BME280;10636;19.390;-99.256;2023-05-07T09:30:04;78112.41;;;25.90;34.08
20955;BME280;10636;19.390;-99.256;2023-05-07T09:32:35;78109.66;;;25.88;34.13
20955;BME280;10636;19.390;-99.256;2023-05-07T09:35:06;78110.34;;;25.89;33.99
20955;BME280;10636;19.390;-99.256;2023-05-07T09:37:42;78120.41;;;25.88;34.19
20955;BME280;10636;19.390;-99.256;2023-05-07T09:40:22;78108.91;;;25.86;34.15
20955;BME280;10636;19.390;-99.256;2023-05-07T09:42:51;78115.66;;;25.87;34.34
20955;BME280;10636;19.390;-99.256;2023-05-07T09:45:22;78121.00;;;25.87;34.27
20955;BME280;10636;19.390;-99.256;2023-05-07T09:47:54;78117.63;;;25.86;34.25
20955;BME280;10636;19.390;-99.256;2023-05-07T09:50:26;78112.88;;;25.85;34.04
20955;BME280;10636;19.390;-99.256;2023-05-07T09:52:56;78110.19;;;25.85;33.95
20955;BME280;10636;19.390;-99.256;2023-05-07T09:55:27;78112.88;;;25.85;34.12
20955;BME280;10636;19.390;-99.256;2023-05-07T09:57:55;78110.19;;;25.85;34.22
20955;BME280;10636;19.390;-99.256;2023-05-07T10:00:26;78107.53;;;25.85;34.09
20955;BME280;10636;19.390;-99.256;2023-05-07T10:02:57;78103.44;;;25.84;33.77
20955;BME280;10636;19.390;-99.256;2023-05-07T10:05:26;78096.69;;;25.83;33.97
20955;BME280;10636;19.390;-99.256;2023-05-07T10:07:55;78098.00;;;25.81;34.06
20955;BME280;10636;19.390;-99.256;2023-05-07T10:10:26;78088.56;;;25.80;33.85
20955;BME280;10636;19.390;-99.256;2023-05-07T10:12:55;78094.56;;;25.79;34.11
20955;BME280;10636;19.390;-99.256;2023-05-07T10:15:25;78092.56;;;25.79;33.96
20955;BME280;10636;19.390;-99.256;2023-05-07T10:17:54;78094.56;;;25.79;33.88
20955;BME280;10636;19.390;-99.256;2023-05-07T10:20:23;78096.56;;;25.78;34.05
20955;BME280;10636;19.390;-99.256;2023-05-07T10:22:56;78096.47;;;25.76;33.64
20955;BME280;10636;19.390;-99.256;2023-05-07T10:25:30;78092.41;;;25.75;33.57
20955;BME280;10636;19.390;-99.256;2023-05-07T10:28:03;78086.16;;;25.71;33.66
20955;BME280;10636;19.390;-99.256;2023-05-07T10:30:40;78084.94;;;25.74;33.60
20955;BME280;10636;19.390;-99.256;2023-05-07T10:33:14;78082.25;;;25.74;33.98
20955;BME280;10636;19.390;-99.256;2023-05-07T10:35:45;78078.09;;;25.71;34.22
20955;BME280;10636;19.390;-99.256;2023-05-07T10:38:14;78073.94;;;25.68;33.59
20955;BME280;10636;19.390;-99.256;2023-05-07T10:40:45;78071.97;;;25.68;34.09
20955;BME280;10636;19.390;-99.256;2023-05-07T10:43:13;78077.34;;;25.68;33.67
20955;BME280;10636;19.390;-99.256;2023-05-07T10:45:41;78074.56;;;25.66;33.60
20955;BME280;10636;19.390;-99.256;2023-05-07T10:48:12;78070.56;;;25.67;33.49
20955;BME280;10636;19.390;-99.256;2023-05-07T10:50:41;78066.50;;;25.66;33.57
20955;BME280;10636;19.390;-99.256;2023-05-07T10:53:23;78067.81;;;25.65;33.75
20955;BME280;10636;19.390;-99.256;2023-05-07T10:56:27;78066.44;;;25.64;33.44
20955;BME280;10636;19.390;-99.256;2023-05-07T11:01:53;78077.03;;;25.60;33.42
20955;BME280;10636;19.390;-99.256;2023-05-07T11:04:22;78081.66;;;25.58;33.53
20955;BME280;10636;19.390;-99.256;2023-05-07T11:10:04;78072.88;;;25.57;33.68
20955;BME280;10636;19.390;-99.256;2023-05-07T11:12:54;78081.56;;;25.55;33.28
20955;BME280;10636;19.390;-99.256;2023-05-07T11:15:42;78087.59;;;25.56;33.68
20955;BME280;10636;19.390;-99.256;2023-05-07T11:18:13;78087.59;;;25.56;33.57
20955;BME280;10636;19.390;-99.256;2023-05-07T11:20:52;78086.22;;;25.55;33.55
20955;BME280;10636;19.390;-99.256;2023-05-07T11:23:58;78092.91;;;25.54;33.61
20955;BME280;10636;19.390;-99.256;2023-05-07T11:26:28;78084.16;;;25.53;33.68
20955;BME280;10636;19.390;-99.256;2023-05-07T11:28:59;78082.09;;;25.52;33.56
20955;BME280;10636;19.390;-99.256;2023-05-07T11:31:28;78081.41;;;25.51;33.85
20955;BME280;10636;19.390;-99.256;2023-05-07T11:33:57;78082.09;;;25.52;33.80
20955;BME280;10636;19.390;-99.256;2023-05-07T11:36:31;78075.34;;;25.51;33.65
20955;BME280;10636;19.390;-99.256;2023-05-07T11:39:00;78071.28;;;25.50;33.37
20955;BME280;10636;19.390;-99.256;2023-05-07T11:41:35;78072.59;;;25.49;33.68
20955;BME280;10636;19.390;-99.256;2023-05-07T11:44:06;78071.22;;;25.48;33.60
20955;BME280;10636;19.390;-99.256;2023-05-07T11:46:34;78069.84;;;25.47;33.63
20955;BME280;10636;19.390;-99.256;2023-05-07T11:49:03;78065.84;;;25.48;34.00
20955;BME280;10636;19.390;-99.256;2023-05-07T11:51:31;78064.47;;;25.47;33.90
20955;BME280;10636;19.390;-99.256;2023-05-07T11:53:59;78069.84;;;25.47;33.97
20955;BME280;10636;19.390;-99.256;2023-05-07T11:56:28;78073.13;;;25.45;33.71
20955;BME280;10636;19.390;-99.256;2023-05-07T11:58:56;78076.41;;;25.44;33.72
20955;BME280;10636;19.390;-99.256;2023-05-07T12:01:26;78083.16;;;25.45;34.06
20955;BME280;10636;19.390;-99.256;2023-05-07T12:03:55;78089.84;;;25.44;33.51
20955;BME280;10636;19.390;-99.256;2023-05-07T12:06:23;78084.47;;;25.44;34.16
20955;BME280;10636;19.390;-99.256;2023-05-07T12:08:52;78091.84;;;25.43;33.58
20955;BME280;10636;19.390;-99.256;2023-05-07T12:11:23;78084.41;;;25.42;34.00
20955;BME280;10636;19.390;-99.256;2023-05-07T12:13:54;78097.75;;;25.40;34.09
20955;BME280;10636;19.390;-99.256;2023-05-07T12:16:23;78101.81;;;25.41;33.50
20955;BME280;10636;19.390;-99.256;2023-05-07T12:18:53;78100.41;;;25.40;33.62
20955;BME280;10636;19.390;-99.256;2023-05-07T12:21:23;78104.34;;;25.37;33.73
20955;BME280;10636;19.390;-99.256;2023-05-07T12:23:53;78111.09;;;25.38;33.54
20955;BME280;10636;19.390;-99.256;2023-05-07T12:26:21;78111.78;;;25.38;33.99
20955;BME280;10636;19.390;-99.256;2023-05-07T12:28:50;78113.69;;;25.36;33.81
20955;BME280;10636;19.390;-99.256;2023-05-07T12:31:18;78112.41;;;25.37;34.08
20955;BME280;10636;19.390;-99.256;2023-05-07T12:33:47;78119.06;;;25.36;34.00
20955;BME280;10636;19.390;-99.256;2023-05-07T12:36:17;78126.50;;;25.37;33.83
20955;BME280;10636;19.390;-99.256;2023-05-07T12:38:49;78123.03;;;25.35;33.77
20955;BME280;10636;19.390;-99.256;2023-05-07T12:41:18;78123.16;;;25.37;33.75
20955;BME280;10636;19.390;-99.256;2023-05-07T12:43:56;78125.81;;;25.37;33.78
20955;BME280;10636;19.390;-99.256;2023-05-07T12:46:28;78125.81;;;25.37;33.75
20955;BME280;10636;19.390;-99.256;2023-05-07T12:48:56;78133.78;;;25.35;33.94
20955;BME280;10636;19.390;-99.256;2023-05-07T12:51:28;78132.41;;;25.34;33.66
20955;BME280;10636;19.390;-99.256;2023-05-07T12:53:59;78141.16;;;25.34;33.87
20955;BME280;10636;19.390;-99.256;2023-05-07T12:56:31;78135.09;;;25.34;33.75
20955;BME280;10636;19.390;-99.256;2023-05-07T12:58:59;78139.78;;;25.33;33.40